Time;durP1;ratioP1;P1;durP2;ratioP2;P2;SDS_P1;SDS_P2;PMS_P1;PMS_P2;Temp;Humidity;BMP_temperature;BMP_pressure;BME280_temperature;BME280_humidity;BME280_pressure;Samples;Min_cycle;Max_cycle;Signal;HPM_P1;HPM_P2
2023/11/10 00:00:44;;;;;;;460.60;140.37;;;;;;;7.12;87.51;95239.50;5029699;28;20436;-78
2023/11/10 00:03:11;;;;;;;457.77;141.10;;;;;;;7.17;87.36;95247.03;5030433;28;20446;-78
2023/11/10 00:05:39;;;;;;;465.20;145.03;;;;;;;7.24;86.56;95232.66;5029984;28;20451;-78
2023/11/10 00:08:09;;;;;;;460.27;148.03;;;;;;;7.21;86.76;95230.22;5030046;28;20808;-78
2023/11/10 00:10:36;;;;;;;463.43;149.77;;;;;;;7.21;86.55;95229.38;5030630;28;20970;-78
2023/11/10 00:13:03;;;;;;;455.07;146.73;;;;;;;7.21;86.70;95232.00;5030557;28;20441;-78
2023/11/10 00:15:32;;;;;;;450.47;148.17;;;;;;;7.20;86.26;95236.38;5030571;28;20469;-78
2023/11/10 00:18:00;;;;;;;457.43;149.87;;;;;;;7.21;86.73;95239.81;5030564;28;20492;-78
2023/11/10 00:20:26;;;;;;;450.97;143.80;;;;;;;7.10;86.38;95233.56;5030333;28;20887;-77
2023/11/10 00:22:53;;;;;;;445.37;139.33;;;;;;;6.92;87.06;95228.69;5028162;28;20502;-78
2023/11/10 00:25:20;;;;;;;455.43;146.10;;;;;;;6.79;87.29;95228.66;5030487;28;20492;-78
2023/11/10 00:27:47;;;;;;;439.77;134.47;;;;;;;6.62;88.03;95228.88;4995421;28;20971;-78
2023/11/10 00:30:14;;;;;;;445.97;142.27;;;;;;;6.59;89.20;95231.69;5011783;28;20435;-78
2023/11/10 00:32:42;;;;;;;453.57;149.30;;;;;;;6.64;89.22;95240.06;5030042;28;20454;-78
2023/11/10 00:35:10;;;;;;;450.00;140.77;;;;;;;6.67;88.27;95239.88;5030325;28;20544;-78
2023/11/10 00:37:36;;;;;;;453.87;132.57;;;;;;;6.70;89.00;95240.53;5029882;28;20552;-78
2023/11/10 00:40:04;;;;;;;454.60;149.93;;;;;;;6.68;88.73;95237.19;5030225;28;20447;-77
2023/11/10 00:42:31;;;;;;;451.37;140.60;;;;;;;6.56;88.92;95231.88;4995058;28;20448;-78
2023/11/10 00:44:57;;;;;;;456.33;144.23;;;;;;;6.57;88.77;95233.56;5030452;28;20475;-78
2023/11/10 00:47:25;;;;;;;455.47;142.73;;;;;;;6.58;88.24;95225.66;5029838;28;20443;-78
2023/11/10 00:49:53;;;;;;;451.80;129.37;;;;;;;6.65;87.91;95229.56;5029841;28;20455;-78
2023/11/10 00:52:21;;;;;;;453.60;138.53;;;;;;;6.72;87.64;95228.22;5030008;28;20937;-78
2023/11/10 00:54:47;;;;;;;449.23;129.57;;;;;;;6.68;87.47;95226.75;5029873;28;20478;-78
2023/11/10 00:57:14;;;;;;;457.07;142.17;;;;;;;6.76;87.67;95227.09;5029705;28;20561;-77
2023/11/10 00:59:41;;;;;;;450.60;137.50;;;;;;;6.87;87.51;95230.75;5029843;28;20454;-78
2023/11/10 01:02:08;;;;;;;457.97;147.20;;;;;;;6.89;87.37;95221.91;5030205;28;20440;-78
2023/11/10 01:04:35;;;;;;;448.80;129.13;;;;;;;6.98;86.37;95236.97;5011542;28;20935;-78
2023/11/10 01:07:03;;;;;;;451.97;151.53;;;;;;;7.03;86.27;95227.06;5029900;28;20459;-77
2023/11/10 01:09:30;;;;;;;442.83;132.03;;;;;;;7.07;86.18;95217.25;5029462;28;20821;-78
2023/11/10 01:11:58;;;;;;;453.93;143.53;;;;;;;7.12;85.46;95217.78;5029968;28;20448;-78
2023/11/10 01:14:25;;;;;;;445.47;129.37;;;;;;;7.07;85.20;95225.09;5029720;28;21009;-78
2023/11/10 01:16:52;;;;;;;447.83;145.87;;;;;;;6.73;85.66;95224.69;4995001;28;20994;-78
2023/11/10 01:19:19;;;;;;;450.07;144.73;;;;;;;6.45;86.62;95219.56;5032902;28;20448;-78
2023/11/10 01:21:46;;;;;;;431.97;131.87;;;;;;;6.55;86.67;95218.03;5033299;28;20442;-77
2023/11/10 01:24:16;;;;;;;440.73;138.33;;;;;;;6.65;86.23;95208.69;5032903;28;20548;-78
2023/11/10 01:26:43;;;;;;;436.33;127.53;;;;;;;6.69;85.94;95204.94;5033384;28;20520;-77
2023/11/10 01:29:10;;;;;;;438.47;126.60;;;;;;;6.72;86.14;95209.13;5033290;28;20937;-78
2023/11/10 01:31:37;;;;;;;453.83;139.37;;;;;;;6.74;86.32;95215.09;5033091;28;20443;-77
2023/11/10 01:34:04;;;;;;;448.17;131.03;;;;;;;6.80;85.85;95210.28;4998324;28;20444;-78
2023/11/10 01:36:31;;;;;;;448.20;128.63;;;;;;;6.86;85.31;95213.44;5032976;28;20526;-78
2023/11/10 01:38:57;;;;;;;453.37;129.40;;;;;;;6.96;85.38;95206.72;5033194;28;20502;-78
2023/11/10 01:41:27;;;;;;;461.97;153.27;;;;;;;6.99;85.10;95204.72;5032826;28;20459;-78
2023/11/10 01:43:54;;;;;;;457.10;139.20;;;;;;;6.93;85.12;95197.28;5033260;28;21105;-78
2023/11/10 01:46:46;;;;;;;452.27;135.80;;;;;;;6.82;84.72;95208.44;5033047;28;20498;-78
2023/11/10 01:49:15;;;;;;;455.97;134.30;;;;;;;6.93;84.76;95209.50;5032971;28;20830;-78
2023/11/10 01:51:45;;;;;;;453.63;131.00;;;;;;;6.44;87.13;95203.06;5032831;28;20942;-78
2023/11/10 01:54:14;;;;;;;457.50;139.33;;;;;;;6.62;86.28;95195.00;4998095;28;20480;-78
2023/11/10 01:56:43;;;;;;;457.33;128.43;;;;;;;6.74;86.74;95199.44;5032657;28;20511;-78
2023/11/10 01:59:14;;;;;;;460.90;134.97;;;;;;;6.79;86.45;95186.94;4997701;28;20448;-78
2023/11/10 02:01:41;;;;;;;467.50;136.60;;;;;;;6.83;86.20;95186.63;5032671;28;20451;-78
2023/11/10 02:04:11;;;;;;;467.27;136.10;;;;;;;6.89;86.08;95187.16;5032898;28;20448;-78
2023/11/10 02:06:39;;;;;;;463.17;134.87;;;;;;;6.86;86.12;95185.59;5032956;28;20452;-78
2023/11/10 02:09:06;;;;;;;469.27;135.87;;;;;;;6.83;86.17;95184.00;5032677;28;20529;-78
2023/11/10 02:11:33;;;;;;;468.60;138.17;;;;;;;6.92;86.03;95182.56;5032835;28;20448;-77
2023/11/10 02:14:02;;;;;;;464.50;129.63;;;;;;;6.94;85.89;95179.84;5032674;28;20483;-77
2023/11/10 02:16:29;;;;;;;469.30;136.10;;;;;;;6.95;86.49;95181.56;5032418;28;20443;-78
2023/11/10 02:18:56;;;;;;;471.03;137.37;;;;;;;6.93;86.37;95180.78;5032370;28;20448;-78
2023/11/10 02:21:23;;;;;;;468.93;144.13;;;;;;;6.86;85.79;95172.53;5032553;28;20527;-78
2023/11/10 02:23:52;;;;;;;460.30;127.33;;;;;;;6.87;86.57;95176.81;5032544;28;20457;-78
2023/11/10 02:26:21;;;;;;;466.97;136.40;;;;;;;6.83;86.76;95170.97;5032881;28;20457;-78
2023/11/10 02:28:47;;;;;;;465.37;143.23;;;;;;;6.91;85.86;95164.41;5032495;28;20475;-78
2023/11/10 02:31:15;;;;;;;468.80;136.57;;;;;;;6.97;85.92;95167.47;5032257;28;20800;-78
2023/11/10 02:33:42;;;;;;;467.30;137.47;;;;;;;6.91;85.63;95159.19;5032661;28;20439;-78
2023/11/10 02:36:09;;;;;;;477.83;139.37;;;;;;;6.68;86.34;95164.16;5032942;28;20449;-78
2023/11/10 02:38:36;;;;;;;492.90;135.37;;;;;;;6.66;86.35;95171.25;5042951;28;20491;-79
2023/11/10 02:41:04;;;;;;;491.50;142.07;;;;;;;6.70;86.98;95167.50;5009039;28;20445;-78
2023/11/10 02:43:32;;;;;;;491.97;138.20;;;;;;;6.73;86.38;95169.91;5035055;28;20450;-78
2023/11/10 02:45:59;;;;;;;486.53;136.80;;;;;;;6.68;85.43;95158.94;5032161;28;20911;-78
2023/11/10 02:48:26;;;;;;;478.67;132.40;;;;;;;6.63;84.96;95155.78;5030291;28;20465;-78
2023/11/10 02:50:53;;;;;;;513.47;135.03;;;;;;;6.23;86.26;95149.72;5099750;28;20455;-78
2023/11/10 02:53:20;;;;;;;511.23;134.67;;;;;;;6.36;86.67;95150.59;5032340;28;20443;-78
2023/11/10 02:55:47;;;;;;;513.83;138.70;;;;;;;6.26;87.27;95146.06;5032107;28;20482;-78
2023/11/10 02:58:15;;;;;;;516.97;136.03;;;;;;;6.33;87.31;95148.16;5031855;28;20478;-78
2023/11/10 03:00:44;;;;;;;537.13;153.20;;;;;;;6.38;87.06;95147.91;5031756;28;20792;-78
2023/11/10 03:03:11;;;;;;;521.77;132.97;;;;;;;6.41;87.50;95160.75;4996968;28;20450;-78
2023/11/10 03:05:39;;;;;;;526.33;137.97;;;;;;;6.31;86.98;95159.63;5031629;28;20448;-78
2023/11/10 03:08:07;;;;;;;524.37;137.87;;;;;;;6.14;87.22;95153.75;5031831;28;20454;-78
2023/11/10 03:10:34;;;;;;;528.77;136.17;;;;;;;5.97;88.02;95150.50;5031589;28;20459;-78
2023/11/10 03:13:01;;;;;;;529.90;134.27;;;;;;;5.94;88.10;95140.28;5031528;28;20447;-78
2023/11/10 03:15:28;;;;;;;531.45;128.70;;;;;;;5.76;87.25;95150.03;5031505;28;20457;-78
2023/11/10 03:17:57;;;;;;;527.30;124.83;;;;;;;5.81;88.48;95155.81;5031312;28;20229;-78
2023/11/10 03:20:24;;;;;;;530.70;134.15;;;;;;;5.85;88.47;95152.94;5031743;28;20440;-78
2023/11/10 03:22:52;;;;;;;534.83;138.45;;;;;;;5.92;87.96;95163.81;5031292;28;20200;-78
2023/11/10 03:25:19;;;;;;;528.17;126.63;;;;;;;5.92;87.39;95143.00;5028922;28;20556;-78
2023/11/10 03:27:46;;;;;;;526.67;132.10;;;;;;;5.95;88.77;95132.38;5031186;28;20458;-78
2023/11/10 03:30:13;;;;;;;529.27;131.60;;;;;;;5.67;88.87;95129.78;5031257;28;20436;-78
2023/11/10 03:32:40;;;;;;;527.40;136.50;;;;;;;5.53;89.92;95134.09;5031438;28;20454;-78
2023/11/10 03:35:08;;;;;;;532.17;131.13;;;;;;;5.66;89.87;95136.75;5012661;28;20458;-78
2023/11/10 03:37:35;;;;;;;529.30;132.97;;;;;;;5.74;89.66;95131.06;5030947;28;20486;-78
2023/11/10 03:40:05;;;;;;;525.87;127.53;;;;;;;5.80;89.55;95138.53;5031201;28;20450;-78
2023/11/10 03:42:32;;;;;;;536.05;139.38;;;;;;;5.78;89.86;95135.16;5031074;28;20455;-78
2023/11/10 03:44:59;;;;;;;523.80;127.93;;;;;;;5.72;88.64;95130.31;5031308;28;20555;-78
2023/11/10 03:47:25;;;;;;;529.80;133.57;;;;;;;5.63;89.40;95117.88;5031082;28;20948;-76
2023/11/10 03:49:52;;;;;;;533.17;135.93;;;;;;;5.63;91.18;95117.88;5030996;28;20812;-78
2023/11/10 03:52:20;;;;;;;540.10;132.85;;;;;;;5.54;91.01;95111.50;5030999;28;20204;-77
2023/11/10 03:54:47;;;;;;;539.75;130.73;;;;;;;5.47;90.57;95113.63;5031260;28;20227;-77
2023/11/10 03:57:14;;;;;;;534.70;130.95;;;;;;;5.56;91.55;95104.44;5030813;28;20211;-78
2023/11/10 03:59:41;;;;;;;537.42;131.40;;;;;;;5.64;91.90;95111.75;5030890;28;20531;-77
2023/11/10 04:02:09;;;;;;;531.58;128.15;;;;;;;5.70;90.69;95109.59;5028823;28;20222;-78
2023/11/10 04:04:36;;;;;;;540.28;136.00;;;;;;;5.75;91.63;95099.72;4996313;28;20658;-78
2023/11/10 04:07:03;;;;;;;533.90;130.63;;;;;;;5.77;91.74;95094.41;5030934;28;20200;-78
2023/11/10 04:09:33;;;;;;;534.67;134.13;;;;;;;5.84;90.71;95108.75;5030952;28;20200;-78
2023/11/10 04:12:00;;;;;;;535.45;136.57;;;;;;;5.92;91.09;95108.28;5030710;28;20264;-78
2023/11/10 04:14:27;;;;;;;535.13;135.63;;;;;;;5.94;90.52;95093.41;5030665;28;20215;-78
2023/11/10 04:16:54;;;;;;;535.27;141.27;;;;;;;5.84;91.56;95093.13;5097471;28;20203;-78
2023/11/10 04:19:22;;;;;;;531.08;128.75;;;;;;;5.63;92.00;95097.91;4995906;28;20494;-78
2023/11/10 04:21:49;;;;;;;532.28;135.63;;;;;;;5.66;91.09;95089.06;5030555;28;20205;-78
2023/11/10 04:24:17;;;;;;;526.30;126.82;;;;;;;5.36;92.55;95086.59;4995709;28;20199;-78
2023/11/10 04:26:45;;;;;;;530.80;125.20;;;;;;;5.45;91.60;95091.22;5030283;28;20208;-78
2023/11/10 04:29:12;;;;;;;526.88;126.80;;;;;;;5.51;90.45;95094.31;5030802;28;20214;-79
2023/11/10 04:31:40;;;;;;;526.75;125.82;;;;;;;5.59;90.80;95091.22;5030309;28;20208;-80
2023/11/10 04:34:07;;;;;;;524.55;124.20;;;;;;;5.63;90.14;95102.28;5030747;28;20195;-80
2023/11/10 04:36:35;;;;;;;524.63;124.95;;;;;;;5.67;90.35;95103.75;5030562;28;20226;-79
2023/11/10 04:39:03;;;;;;;524.10;126.30;;;;;;;5.73;89.96;95095.56;5030277;28;20228;-78
2023/11/10 04:41:32;;;;;;;521.72;121.22;;;;;;;5.79;90.03;95100.41;5029068;28;20642;-78
2023/11/10 04:44:01;;;;;;;526.60;128.68;;;;;;;5.78;89.35;95086.53;5050146;28;20199;-79
2023/11/10 04:46:28;;;;;;;530.05;130.85;;;;;;;5.81;90.12;95077.69;5050417;28;20690;-78
2023/11/10 04:48:55;;;;;;;529.15;129.00;;;;;;;5.78;90.10;95076.13;5050311;28;20209;-78
2023/11/10 04:51:22;;;;;;;524.75;129.07;;;;;;;5.81;90.17;95080.31;5050282;28;20210;-78
2023/11/10 04:53:49;;;;;;;527.22;127.57;;;;;;;5.68;90.07;95089.81;5049657;28;20210;-79
2023/11/10 04:56:16;;;;;;;528.00;128.95;;;;;;;5.74;89.66;95089.41;5050531;28;20203;-79
2023/11/10 04:58:44;;;;;;;525.63;129.73;;;;;;;5.68;89.83;95082.00;5050140;28;20287;-79
2023/11/10 05:01:13;;;;;;;535.35;128.27;;;;;;;5.67;89.56;95082.94;5049969;28;20242;-78
2023/11/10 05:03:41;;;;;;;525.92;129.38;;;;;;;5.39;89.91;95076.81;5031377;28;20313;-79
2023/11/10 05:06:09;;;;;;;526.42;124.28;;;;;;;5.29;91.13;95073.97;5049936;28;20200;-79
2023/11/10 05:08:36;;;;;;;522.28;124.05;;;;;;;5.28;91.67;95068.84;5049831;28;20206;-78
2023/11/10 05:11:03;;;;;;;523.03;122.60;;;;;;;5.31;91.72;95067.84;5049975;28;20207;-79
2023/11/10 05:13:30;;;;;;;524.40;124.25;;;;;;;5.42;92.04;95071.44;5049861;28;20259;-78
2023/11/10 05:15:58;;;;;;;525.63;126.20;;;;;;;5.46;91.11;95066.88;5050062;28;20207;-77
2023/11/10 05:18:27;;;;;;;521.75;121.60;;;;;;;5.44;91.61;95073.94;5050105;28;20279;-77
2023/11/10 05:20:55;;;;;;;528.03;125.65;;;;;;;9.25;100.00;95053.53;5049603;28;20210;-80
2023/11/10 05:23:22;;;;;;;524.17;131.50;;;;;;;9.60;97.90;95084.00;5049260;28;20247;-78
2023/11/10 05:25:49;;;;;;;527.92;132.77;;;;;;;8.73;89.41;95081.97;5049241;28;20216;-74
2023/11/10 05:28:16;;;;;;;523.72;140.70;;;;;;;8.28;85.81;95092.19;5049714;28;20680;-76
2023/11/10 05:30:43;;;;;;;535.05;149.15;;;;;;;7.93;84.01;95087.72;5043389;28;20207;-76
2023/11/10 05:33:09;;;;;;;535.85;150.45;;;;;;;7.71;83.79;95100.63;5029656;28;20213;-76
2023/11/10 05:35:38;;;;;;;566.20;176.30;;;;;;;7.43;84.41;95099.94;5029556;28;20573;-76
2023/11/10 05:38:05;;;;;;;574.15;183.77;;;;;;;7.19;85.69;95096.41;5029231;28;20233;-76
2023/11/10 05:40:32;;;;;;;559.85;161.93;;;;;;;7.10;86.63;95107.47;5029214;28;20574;-77
2023/11/10 05:42:59;;;;;;;542.73;150.10;;;;;;;7.08;87.87;95102.34;5029479;28;20209;-77
2023/11/10 05:45:26;;;;;;;547.50;153.97;;;;;;;7.20;88.66;95102.44;5029640;28;20444;-77
2023/11/10 05:47:53;;;;;;;559.00;173.40;;;;;;;7.22;87.66;95104.00;5029768;28;20851;-77
2023/11/10 05:50:20;;;;;;;572.67;183.88;;;;;;;7.41;88.04;95095.75;5009894;28;20448;-76
2023/11/10 05:52:48;;;;;;;565.43;173.37;;;;;;;7.52;87.79;95095.00;5028769;28;20295;-76
2023/11/10 05:55:16;;;;;;;561.33;177.87;;;;;;;7.70;87.28;95093.72;5028997;28;20509;-76
2023/11/10 05:57:43;;;;;;;546.87;160.57;;;;;;;7.75;86.25;95094.25;5029005;28;20533;-76
2023/11/10 06:00:11;;;;;;;552.17;162.33;;;;;;;7.94;87.23;95093.78;5029167;28;20450;-76
2023/11/10 06:02:38;;;;;;;554.83;161.97;;;;;;;8.08;86.63;95086.63;5078953;28;20971;-76
2023/11/10 06:05:06;;;;;;;555.20;178.20;;;;;;;8.16;86.09;95087.88;5030299;28;20773;-76
2023/11/10 06:07:33;;;;;;;550.60;169.50;;;;;;;8.19;85.80;95095.47;4997782;28;20529;-76
2023/11/10 06:10:04;;;;;;;545.17;164.27;;;;;;;8.19;84.98;95096.31;5032373;28;20908;-76
2023/11/10 06:12:30;;;;;;;549.23;166.67;;;;;;;8.13;84.39;95088.09;5032166;28;20491;-76
2023/11/10 06:14:57;;;;;;;549.90;169.43;;;;;;;8.18;85.53;95086.81;5032123;28;20453;-76
2023/11/10 06:17:24;;;;;;;546.93;162.57;;;;;;;8.29;84.69;95093.84;5032038;28;20453;-76
2023/11/10 06:19:51;;;;;;;553.27;167.87;;;;;;;8.32;84.55;95088.41;5032211;28;20482;-76
2023/11/10 06:22:19;;;;;;;567.00;190.20;;;;;;;11.64;100.00;95066.34;5031949;28;20444;-76
2023/11/10 06:24:46;;;;;;;560.27;189.63;;;;;;;12.06;98.68;95078.41;5032003;28;20476;-76
2023/11/10 06:27:15;;;;;;;560.37;216.03;;;;;;;12.35;84.19;95082.91;5032268;28;20457;-76
2023/11/10 06:29:41;;;;;;;17.53;12.03;;;;;;;15.35;79.44;95082.59;5032147;28;20791;-77
2023/11/10 06:32:11;;;;;;;571.00;289.37;;;;;;;14.44;69.39;95077.47;5031889;28;20444;-77
2023/11/10 06:34:37;;;;;;;580.63;320.30;;;;;;;13.67;63.59;95079.66;5032581;28;20444;-77
2023/11/10 06:37:05;;;;;;;568.63;289.23;;;;;;;12.84;64.57;95078.53;5032016;28;20443;-79
2023/11/10 06:39:31;;;;;;;563.80;259.03;;;;;;;11.99;67.64;95072.03;5082687;28;20488;-78
2023/11/10 06:42:00;;;;;;;571.50;263.80;;;;;;;11.57;70.71;95081.81;5032741;28;20450;-77
2023/11/10 06:44:29;;;;;;;567.43;245.37;;;;;;;11.54;90.93;95070.72;5013610;28;20445;-78
2023/11/10 06:46:57;;;;;;;560.93;233.80;;;;;;;12.55;84.91;95074.09;5032143;28;20465;-78
2023/11/10 06:49:24;;;;;;;18.10;10.77;;;;;;;13.40;83.80;95054.91;5031782;28;20934;-78
2023/11/10 06:51:53;;;;;;;27.83;15.07;;;;;;;14.52;77.14;95050.34;5031964;28;20747;-78
2023/11/10 06:54:20;;;;;;;21.60;14.37;;;;;;;16.35;70.95;95050.22;5013574;28;20840;-79
2023/11/10 06:56:47;;;;;;;9.93;7.00;;;;;;;16.83;62.40;95048.69;5031354;28;20443;-76
2023/11/10 06:59:14;;;;;;;13.80;7.30;;;;;;;15.89;56.83;95044.41;5031661;28;20836;-78
2023/11/10 07:01:44;;;;;;;13.00;9.10;;;;;;;14.80;59.08;95041.38;5031258;28;20440;-77
2023/11/10 07:04:11;;;;;;;14.10;11.60;;;;;;;13.60;62.21;95038.06;5031460;28;20444;-78
2023/11/10 07:06:38;;;;;;;15.60;10.60;;;;;;;13.07;65.98;95036.91;5031938;28;20488;-78
2023/11/10 07:09:07;;;;;;;20.93;13.60;;;;;;;12.52;67.23;95036.69;5031677;28;20452;-75
2023/11/10 07:11:34;;;;;;;72.97;35.50;;;;;;;11.82;72.49;95030.59;5031931;28;20471;-79
2023/11/10 07:14:02;;;;;;;20.93;11.03;;;;;;;11.35;72.76;95035.53;5032137;28;20450;-78
2023/11/10 07:16:29;;;;;;;24.50;14.00;;;;;;;10.66;75.88;95029.16;5031502;28;20451;-81
2023/11/10 07:18:58;;;;;;;19.93;11.00;;;;;;;10.04;78.60;95022.81;5052343;27;20477;-76
2023/11/10 07:21:29;;;;;;;13.53;8.67;;;;;;;9.96;80.07;95019.16;5069445;27;20526;-77
2023/11/10 07:23:56;;;;;;;15.43;9.97;;;;;;;9.74;80.49;95015.59;5097203;27;20442;-77
2023/11/10 07:26:22;;;;;;;16.47;10.73;;;;;;;9.79;81.99;95015.25;5084104;27;20458;-77
2023/11/10 07:28:49;;;;;;;16.97;9.60;;;;;;;9.66;81.65;95017.19;5030348;28;20921;-78
2023/11/10 07:31:18;;;;;;;11.63;9.13;;;;;;;9.63;82.00;94994.69;5130412;27;20441;-78
2023/11/10 07:33:45;;;;;;;14.77;8.40;;;;;;;9.60;82.16;95011.47;5132676;27;20434;-78
2023/11/10 07:36:15;;;;;;;13.43;9.13;;;;;;;9.67;83.05;94998.72;5098428;27;20779;-78
2023/11/10 07:38:45;;;;;;;18.70;10.73;;;;;;;9.70;82.96;94995.00;5080970;27;20509;-78
2023/11/10 07:41:18;;;;;;;17.50;9.77;;;;;;;9.71;83.27;94997.50;5042925;27;20962;-78
2023/11/10 07:43:45;;;;;;;14.73;9.10;;;;;;;9.83;82.27;95001.78;5134499;27;20444;-78
2023/11/10 07:46:11;;;;;;;10.80;7.60;;;;;;;9.89;80.50;95008.31;5072978;27;20482;-78
2023/11/10 07:48:38;;;;;;;11.87;7.20;;;;;;;9.96;80.20;95009.50;5030326;28;20933;-78
2023/11/10 07:51:08;;;;;;;8.63;7.70;;;;;;;10.07;81.10;95000.75;5030287;28;20449;-78
2023/11/10 07:53:37;;;;;;;8.20;7.30;;;;;;;10.06;80.82;95006.94;5033931;27;20473;-78
2023/11/10 07:56:04;;;;;;;9.83;8.50;;;;;;;10.16;80.67;95002.66;5034107;27;20480;-79
2023/11/10 07:58:31;;;;;;;12.17;8.60;;;;;;;10.31;80.47;95000.56;5033896;28;20954;-78
2023/11/10 08:00:58;;;;;;;12.07;7.30;;;;;;;10.48;79.91;94998.25;5017427;27;20520;-78
2023/11/10 08:03:26;;;;;;;9.77;6.93;;;;;;;10.62;78.54;95004.97;5034477;27;20470;-77
2023/11/10 08:05:53;;;;;;;9.13;6.33;;;;;;;10.63;77.57;95005.78;5036295;27;20559;-77
2023/11/10 08:08:20;;;;;;;9.13;7.00;;;;;;;10.69;77.37;95005.28;5035631;27;20957;-77
2023/11/10 08:10:48;;;;;;;8.87;7.20;;;;;;;10.74;77.34;94998.69;5034099;27;20449;-78
2023/11/10 08:13:15;;;;;;;9.77;7.40;;;;;;;10.84;79.00;94996.13;5038224;27;20443;-78
2023/11/10 08:15:43;;;;;;;19.13;8.03;;;;;;;10.87;77.08;94988.00;5041168;27;20457;-78
2023/11/10 08:18:11;;;;;;;19.83;8.73;;;;;;;10.95;77.89;94997.84;5037839;28;20445;-77
2023/11/10 08:20:39;;;;;;;8.57;7.67;;;;;;;10.96;77.37;94995.09;5089983;27;20528;-78
2023/11/10 08:23:06;;;;;;;12.73;7.90;;;;;;;11.00;76.86;95011.44;5077974;27;20441;-77
2023/11/10 08:25:33;;;;;;;9.80;7.70;;;;;;;11.07;76.81;95000.28;5072815;27;20437;-77
2023/11/10 08:28:05;;;;;;;11.50;7.90;;;;;;;11.08;75.31;94983.56;5133964;27;20920;-78
2023/11/10 08:30:32;;;;;;;11.67;7.60;;;;;;;11.09;75.99;94987.84;5064161;27;20459;-77
2023/11/10 08:33:00;;;;;;;9.77;7.57;;;;;;;11.14;75.96;94980.41;5030483;28;20514;-76
2023/11/10 08:35:27;;;;;;;9.83;7.43;;;;;;;11.28;76.73;94975.78;5029809;28;20485;-76
2023/11/10 08:37:54;;;;;;;11.67;8.47;;;;;;;11.40;74.93;94975.53;5072516;27;20443;-76
2023/11/10 08:40:21;;;;;;;10.70;7.63;;;;;;;11.41;74.25;94968.47;5077272;27;20490;-76
2023/11/10 08:42:49;;;;;;;12.33;8.60;;;;;;;11.49;75.11;94968.63;5029300;28;20509;-76
2023/11/10 08:45:18;;;;;;;10.17;8.63;;;;;;;11.61;75.72;94969.38;5032508;28;20444;-77
2023/11/10 08:47:44;;;;;;;10.70;8.57;;;;;;;11.59;74.46;94974.78;5039913;28;20440;-76
2023/11/10 08:50:12;;;;;;;9.90;8.40;;;;;;;11.60;76.13;94976.44;5032383;27;20450;-77
2023/11/10 08:52:41;;;;;;;24.43;9.33;;;;;;;11.75;74.96;94984.75;5034155;28;20447;-76
2023/11/10 08:55:10;;;;;;;11.83;8.70;;;;;;;11.74;74.31;94985.72;5036055;28;20476;-76
2023/11/10 08:57:39;;;;;;;10.80;8.70;;;;;;;11.72;73.78;94970.09;5036171;28;20445;-76
2023/11/10 09:00:09;;;;;;;11.50;9.27;;;;;;;11.68;74.89;94968.69;5031750;28;20549;-76
2023/11/10 09:02:37;;;;;;;12.00;8.07;;;;;;;11.67;74.34;94959.16;5027791;28;20451;-77
2023/11/10 09:05:05;;;;;;;17.87;8.97;;;;;;;11.84;74.30;94956.84;5019097;28;20487;-76
2023/11/10 09:07:32;;;;;;;13.10;9.33;;;;;;;12.03;73.86;94951.63;5018018;28;20928;-76
2023/11/10 09:09:59;;;;;;;15.00;8.30;;;;;;;12.18;73.81;94960.78;5027721;28;20501;-76
2023/11/10 09:12:28;;;;;;;10.93;8.27;;;;;;;12.30;73.74;94966.72;5030030;28;20492;-76
2023/11/10 09:14:55;;;;;;;11.70;8.67;;;;;;;12.39;72.64;94940.41;5029701;28;20468;-76
2023/11/10 09:17:22;;;;;;;11.80;9.03;;;;;;;12.55;71.90;94937.22;5030146;28;20538;-76
2023/11/10 09:19:51;;;;;;;7.80;6.93;;;;;;;12.62;71.28;94932.19;4995124;28;20489;-76
2023/11/10 09:22:17;;;;;;;9.37;6.20;;;;;;;11.88;72.07;94918.81;5029993;28;20453;-76
2023/11/10 09:24:45;;;;;;;9.57;7.77;;;;;;;12.07;72.76;94924.06;5010886;28;20452;-77
2023/11/10 09:27:12;;;;;;;12.37;6.20;;;;;;;12.23;72.76;94931.41;5029043;28;20436;-76
2023/11/10 09:29:39;;;;;;;10.70;8.33;;;;;;;12.30;71.67;94919.38;5028242;28;20827;-77
2023/11/10 09:32:10;;;;;;;11.00;6.80;;;;;;;12.33;72.06;94911.19;5029613;28;20483;-77
2023/11/10 09:34:37;;;;;;;9.83;8.83;;;;;;;12.43;72.42;94903.28;5029228;28;20769;-77
2023/11/10 09:37:05;;;;;;;11.33;7.80;;;;;;;12.33;71.74;94896.22;5029926;28;20452;-76
2023/11/10 09:39:32;;;;;;;8.13;6.53;;;;;;;12.49;72.39;94908.81;5030695;28;20477;-79
2023/11/10 09:42:05;;;;;;;10.13;8.10;;;;;;;12.51;71.32;94898.97;5033346;28;20448;-76
2023/11/10 09:44:34;;;;;;;13.07;8.27;;;;;;;12.48;72.61;94888.75;5031604;28;20465;-76
2023/11/10 09:47:01;;;;;;;10.93;7.23;;;;;;;12.51;71.90;94898.16;5032718;28;20451;-75
2023/11/10 09:49:29;;;;;;;8.03;6.60;;;;;;;12.51;71.61;94895.53;5086830;27;20462;-74
2023/11/10 09:51:56;;;;;;;9.93;7.93;;;;;;;12.44;71.85;94895.25;5048318;28;20440;-74
2023/11/10 09:54:24;;;;;;;7.20;6.50;;;;;;;12.40;71.38;94881.53;5030722;28;20548;-77
2023/11/10 09:56:53;;;;;;;10.13;6.87;;;;;;;12.42;72.05;94876.13;5044952;27;20455;-75
2023/11/10 09:59:25;;;;;;;12.23;8.67;;;;;;;12.42;72.60;94876.13;5031812;28;20484;-76
2023/11/10 10:01:52;;;;;;;8.57;7.17;;;;;;;12.40;72.50;94870.19;5087784;27;20444;-75
2023/11/10 10:04:19;;;;;;;9.00;5.90;;;;;;;12.37;73.06;94858.13;5104033;27;20451;-75
2023/11/10 10:06:50;;;;;;;9.30;6.60;;;;;;;12.33;72.83;94862.03;5136162;27;20438;-76
2023/11/10 10:09:17;;;;;;;10.00;6.90;;;;;;;13.36;95.89;94850.59;5078016;27;20810;-77
2023/11/10 10:11:46;;;;;;;7.80;6.47;;;;;;;13.28;85.33;94843.38;5080538;27;20438;-77
2023/11/10 10:14:13;;;;;;;17.40;6.50;;;;;;;13.38;78.33;94832.81;5095335;27;20445;-77
2023/11/10 10:16:50;;;;;;;13.50;6.37;;;;;;;13.75;79.36;94837.13;5117195;27;20436;-76
2023/11/10 10:19:22;;;;;;;10.47;6.20;;;;;;;14.20;71.10;94831.75;5051602;27;20503;-75
2023/11/10 10:21:49;;;;;;;13.67;7.50;;;;;;;13.75;69.06;94821.31;5030560;28;20759;-75
2023/11/10 10:24:16;;;;;;;11.73;6.70;;;;;;;13.43;69.89;94806.84;5030697;28;20454;-76
2023/11/10 10:26:44;;;;;;;7.83;7.00;;;;;;;13.29;71.10;94807.31;5031000;28;20480;-75
2023/11/10 10:29:11;;;;;;;7.93;7.17;;;;;;;13.14;71.73;94793.81;5072565;27;20919;-76
2023/11/10 10:31:38;;;;;;;9.13;7.23;;;;;;;13.06;71.97;94787.63;5005590;28;20821;-76
2023/11/10 10:34:06;;;;;;;11.27;6.90;;;;;;;13.02;72.21;94782.66;5039659;27;20956;-76
2023/11/10 10:36:33;;;;;;;9.23;7.20;;;;;;;12.95;72.64;94776.31;5133318;27;20451;-76
2023/11/10 10:39:03;;;;;;;8.50;6.40;;;;;;;12.79;72.10;94773.50;5132613;27;20449;-76
2023/11/10 10:41:34;;;;;;;7.60;6.87;;;;;;;12.73;72.22;94763.56;5134772;27;20565;-76
2023/11/10 10:44:03;;;;;;;9.00;7.20;;;;;;;12.67;73.38;94764.13;5042014;27;20524;-76
2023/11/10 10:46:33;;;;;;;11.40;10.03;;;;;;;12.73;73.83;94760.91;4995925;28;20470;-77
2023/11/10 10:49:00;;;;;;;9.50;8.30;;;;;;;12.71;73.63;94749.69;5093923;27;20886;-76
2023/11/10 10:51:28;;;;;;;9.07;6.97;;;;;;;12.71;74.02;94744.41;5033412;28;20957;-76
2023/11/10 10:53:57;;;;;;;10.47;6.80;;;;;;;12.74;73.75;94736.25;5030106;28;20484;-78
2023/11/10 10:56:28;;;;;;;11.80;8.80;;;;;;;12.61;73.55;94731.31;5040008;27;20444;-76
2023/11/10 10:58:56;;;;;;;15.57;10.93;;;;;;;12.52;74.11;94740.09;5076914;27;20451;-76
2023/11/10 11:01:26;;;;;;;17.67;10.13;;;;;;;12.47;74.82;94736.25;5074976;27;20480;-76
2023/11/10 11:04:07;;;;;;;12.10;9.30;;;;;;;12.44;75.12;94739.16;5056316;27;20448;-76
2023/11/10 11:06:49;;;;;;;9.53;7.30;;;;;;;12.44;75.49;94741.78;5030477;28;20441;-76
2023/11/10 11:09:36;;;;;;;8.67;7.80;;;;;;;12.36;75.67;94734.59;5111662;27;20444;-76
2023/11/10 11:12:32;;;;;;;17.07;8.63;;;;;;;12.32;75.82;94734.06;5066700;28;20437;-76
2023/11/10 11:15:13;;;;;;;12.70;10.17;;;;;;;12.25;74.90;94738.25;5096025;27;20933;-76
2023/11/10 11:18:08;;;;;;;11.97;8.80;;;;;;;12.16;75.78;94741.75;5115940;27;20452;-76
2023/11/10 11:20:36;;;;;;;12.93;6.60;;;;;;;12.14;76.48;94748.09;5087764;27;21005;-76